createdAt,value
2023-02-03T00:00:28.745Z,8.95
2023-02-03T00:03:03.279Z,9.02
2023-02-03T00:05:37.923Z,9.10
2023-02-03T00:08:12.349Z,10.73
2023-02-03T00:10:46.231Z,7.88
2023-02-03T00:13:20.014Z,7.50
2023-02-03T00:15:54.992Z,11.35
2023-02-03T00:18:29.451Z,8.85
2023-02-03T00:21:03.041Z,9.43
2023-02-03T00:23:37.017Z,10.32
2023-02-03T00:26:11.614Z,13.98
2023-02-03T00:28:45.768Z,9.98
2023-02-03T00:31:23.315Z,12.07
2023-02-03T00:33:58.669Z,10.90
2023-02-03T00:36:32.288Z,11.00
2023-02-03T00:39:06.311Z,10.77
2023-02-03T00:41:40.380Z,11.35
2023-02-03T00:44:15.335Z,11.70
2023-02-03T00:46:50.276Z,10.57
2023-02-03T00:49:24.073Z,9.68
2023-02-03T00:51:57.674Z,9.75
2023-02-03T00:54:32.768Z,13.00
2023-02-03T00:57:07.460Z,10.18
2023-02-03T00:59:41.468Z,12.32
2023-02-03T01:02:17.098Z,11.40
2023-02-03T01:04:51.141Z,12.73
2023-02-03T01:07:24.677Z,16.45
2023-02-03T01:09:58.401Z,13.10
2023-02-03T01:12:32.589Z,15.23
2023-02-03T01:15:07.336Z,18.15
2023-02-03T01:17:42.401Z,16.67
2023-02-03T01:20:17.211Z,16.23
2023-02-03T01:22:50.900Z,21.10
2023-02-03T01:25:24.664Z,19.95
2023-02-03T01:27:58.460Z,19.83
2023-02-03T01:30:32.543Z,19.33
2023-02-03T01:33:10.529Z,14.82
2023-02-03T01:35:44.325Z,22.73
2023-02-03T01:38:18.043Z,19.80
2023-02-03T01:40:51.914Z,15.63
2023-02-03T01:43:33.159Z,16.75
2023-02-03T01:46:23.647Z,18.13
2023-02-03T01:49:06.323Z,12.35
2023-02-03T01:51:43.852Z,15.18
2023-02-03T01:54:20.287Z,15.88
2023-02-03T01:56:57.095Z,17.10
2023-02-03T01:59:32.700Z,17.33
2023-02-03T02:02:08.591Z,20.58
2023-02-03T02:04:53.053Z,20.23
2023-02-03T02:07:27.290Z,16.63
2023-02-03T02:10:01.721Z,15.27
2023-02-03T02:12:35.623Z,14.70
2023-02-03T02:15:10.515Z,17.75
2023-02-03T02:18:03.644Z,18.50
2023-02-03T02:21:02.596Z,17.50
2023-02-03T02:24:16.368Z,15.15
2023-02-03T02:27:01.820Z,18.33
2023-02-03T02:30:09.117Z,13.65
2023-02-03T02:33:05.196Z,13.85
2023-02-03T02:35:51.832Z,14.40
2023-02-03T02:38:40.500Z,11.30
2023-02-03T02:43:59.105Z,13.68
2023-02-03T02:46:37.270Z,16.63
2023-02-03T02:49:18.413Z,15.10
2023-02-03T02:51:54.164Z,13.32
2023-02-03T02:54:30.780Z,18.27
2023-02-03T02:57:06.909Z,13.65
2023-02-03T02:59:40.557Z,16.90
2023-02-03T03:02:14.557Z,11.75
2023-02-03T03:04:51.586Z,27.45
2023-02-03T03:07:29.025Z,12.43
2023-02-03T03:10:06.511Z,13.30
2023-02-03T03:12:46.488Z,11.52
2023-02-03T03:15:23.887Z,12.38
2023-02-03T03:18:02.805Z,14.52
2023-02-03T03:20:40.429Z,10.93
2023-02-03T03:23:20.396Z,12.57
2023-02-03T03:25:58.870Z,17.55
2023-02-03T03:28:38.599Z,11.77
2023-02-03T03:31:12.353Z,12.25
2023-02-03T03:33:47.331Z,10.75
2023-02-03T03:36:27.909Z,9.95
2023-02-03T03:39:06.508Z,12.45
2023-02-03T03:41:49.281Z,15.80
2023-02-03T03:44:26.668Z,17.75
2023-02-03T03:47:07.531Z,13.70
2023-02-03T03:49:45.429Z,23.60
2023-02-03T03:52:25.788Z,11.70
2023-02-03T03:55:01.622Z,9.85
2023-02-03T03:57:39.438Z,17.20
2023-02-03T04:00:19.063Z,14.35
2023-02-03T04:02:55.504Z,11.15
2023-02-03T04:05:29.574Z,12.07
2023-02-03T04:08:04.520Z,16.40
2023-02-03T04:10:40.334Z,12.88
2023-02-03T04:13:15.904Z,12.90
2023-02-03T04:15:49.792Z,21.88
2023-02-03T04:18:23.445Z,14.57
2023-02-03T04:20:57.201Z,12.05
2023-02-03T04:23:32.182Z,13.45
2023-02-03T04:26:06.289Z,13.68
2023-02-03T04:28:39.998Z,11.23
2023-02-03T04:31:13.962Z,10.27
2023-02-03T04:33:47.982Z,12.32
2023-02-03T04:36:22.124Z,11.52
2023-02-03T04:38:57.177Z,9.40
2023-02-03T04:41:31.040Z,8.15
2023-02-03T04:44:04.859Z,6.40
2023-02-03T04:46:38.583Z,8.15
2023-02-03T04:49:12.302Z,9.13
2023-02-03T04:51:46.333Z,8.77
2023-02-03T04:54:21.504Z,9.38
2023-02-03T04:56:55.658Z,10.55
2023-02-03T04:59:29.369Z,8.57
2023-02-03T05:02:04.215Z,7.60
2023-02-03T05:04:37.870Z,13.48
2023-02-03T05:07:11.703Z,11.80
2023-02-03T05:09:46.635Z,10.77
2023-02-03T05:12:20.489Z,12.52
2023-02-03T05:14:54.032Z,11.52
2023-02-03T05:17:27.859Z,9.30
2023-02-03T05:20:01.849Z,16.75
2023-02-03T05:22:36.618Z,11.02
2023-02-03T05:25:11.736Z,13.75
2023-02-03T05:27:45.647Z,10.38
2023-02-03T05:30:19.760Z,8.00
2023-02-03T05:32:53.587Z,12.75
2023-02-03T05:35:27.337Z,7.63
2023-02-03T05:38:01.510Z,9.52
2023-02-03T05:40:59.554Z,13.25
2023-02-03T05:43:34.199Z,9.90
2023-02-03T05:46:08.906Z,9.68
2023-02-03T05:48:42.728Z,10.55
2023-02-03T05:51:16.474Z,7.00
2023-02-03T05:53:50.355Z,12.65
2023-02-03T05:56:25.458Z,9.35
2023-02-03T05:58:59.358Z,13.45
2023-02-03T06:01:33.804Z,9.18
2023-02-03T06:04:08.048Z,9.60
2023-02-03T06:06:41.673Z,13.93
2023-02-03T06:09:15.525Z,8.48
2023-02-03T06:11:50.639Z,9.65
2023-02-03T06:14:24.678Z,7.43
2023-02-03T06:16:58.313Z,6.60
2023-02-03T06:19:32.079Z,12.02
2023-02-03T06:22:05.713Z,12.68
2023-02-03T06:24:39.545Z,5.57
2023-02-03T06:27:14.724Z,8.23
2023-02-03T06:29:48.567Z,6.50
2023-02-03T06:32:22.388Z,6.95
2023-02-03T06:34:56.173Z,11.40
2023-02-03T06:37:29.742Z,11.20
2023-02-03T06:40:04.392Z,8.50
2023-02-03T06:42:39.758Z,8.75
2023-02-03T06:45:13.693Z,10.63
2023-02-03T06:47:47.461Z,10.18
2023-02-03T06:50:21.259Z,8.30
2023-02-03T06:52:54.787Z,11.05
2023-02-03T06:55:28.763Z,12.27
2023-02-03T06:58:03.680Z,13.20
2023-02-03T07:00:37.606Z,13.82
2023-02-03T07:03:11.218Z,19.35
2023-02-03T07:05:48.926Z,20.80
2023-02-03T07:08:28.355Z,13.85
2023-02-03T07:11:02.228Z,18.20
2023-02-03T07:13:37.982Z,15.82
2023-02-03T07:16:12.036Z,15.63
2023-02-03T07:18:47.955Z,15.52
2023-02-03T07:21:23.036Z,15.00
2023-02-03T07:23:56.681Z,10.93
2023-02-03T07:26:30.833Z,15.77
2023-02-03T07:29:06.196Z,13.32
2023-02-03T07:31:40.270Z,11.75
2023-02-03T07:34:14.152Z,12.57
2023-02-03T07:36:48.201Z,7.15
2023-02-03T07:39:22.137Z,11.70
2023-02-03T07:41:55.906Z,7.40
2023-02-03T07:44:31.053Z,12.32
2023-02-03T07:47:04.978Z,17.85
2023-02-03T07:49:38.491Z,13.20
2023-02-03T07:52:12.290Z,12.32
2023-02-03T07:54:45.953Z,18.02
2023-02-03T07:57:20.069Z,14.98
2023-02-03T07:59:55.170Z,22.48
2023-02-03T08:02:29.337Z,17.50
2023-02-03T08:05:02.997Z,27.63
2023-02-03T08:07:37.059Z,14.48
2023-02-03T08:10:13.264Z,22.48
2023-02-03T08:12:48.078Z,17.67
2023-02-03T08:15:23.286Z,18.17
2023-02-03T08:17:57.330Z,20.45
2023-02-03T08:20:31.201Z,20.80
2023-02-03T08:23:05.996Z,19.42
2023-02-03T08:25:39.615Z,20.35
2023-02-03T08:28:13.772Z,22.02
2023-02-03T08:30:48.940Z,21.67
2023-02-03T08:33:22.811Z,22.35
2023-02-03T08:35:57.274Z,20.63
2023-02-03T08:38:31.161Z,31.55
2023-02-03T08:41:10.788Z,24.73
2023-02-03T08:43:44.921Z,26.88
2023-02-03T08:46:20.014Z,33.33
2023-02-03T08:48:56.522Z,35.13
2023-02-03T08:51:30.205Z,35.92
2023-02-03T08:54:04.430Z,41.22
2023-02-03T08:56:38.210Z,33.13
2023-02-03T08:59:12.456Z,39.05
2023-02-03T09:01:48.508Z,46.40
2023-02-03T09:04:24.790Z,33.03
2023-02-03T09:06:58.654Z,55.78
2023-02-03T09:09:33.382Z,41.53
2023-02-03T09:12:07.869Z,52.30
2023-02-03T09:14:41.615Z,43.28
2023-02-03T09:17:16.515Z,49.88
2023-02-03T09:19:50.371Z,33.60
2023-02-03T09:22:23.874Z,45.03
2023-02-03T09:24:57.772Z,42.28
2023-02-03T09:27:31.337Z,50.60
2023-02-03T09:30:05.928Z,47.80
2023-02-03T09:32:40.902Z,44.72
2023-02-03T09:35:14.640Z,50.35
2023-02-03T09:37:48.859Z,40.75
2023-02-03T09:40:27.408Z,46.20
2023-02-03T09:43:24.018Z,51.78
2023-02-03T09:46:02.887Z,44.70
2023-02-03T09:48:40.874Z,48.25
2023-02-03T09:51:21.691Z,48.63
2023-02-03T09:53:59.616Z,57.78
2023-02-03T09:56:35.658Z,59.67
2023-02-03T09:59:11.269Z,53.90
2023-02-03T10:01:55.303Z,48.33
2023-02-03T10:04:39.924Z,54.35
2023-02-03T10:07:20.306Z,64.05
2023-02-03T10:09:59.926Z,59.35
2023-02-03T10:13:05.648Z,49.35
2023-02-03T10:16:15.381Z,71.43
2023-02-03T10:18:54.308Z,63.05
2023-02-03T10:21:37.060Z,60.58
2023-02-03T10:24:15.797Z,65.32
2023-02-03T10:26:50.856Z,66.10
2023-02-03T10:29:33.552Z,69.15
2023-02-03T10:32:10.509Z,59.30
2023-02-03T10:34:48.201Z,64.25
2023-02-03T10:37:30.277Z,53.75
2023-02-03T10:40:06.040Z,53.75
2023-02-03T10:42:56.601Z,59.67
2023-02-03T10:45:32.733Z,55.38
2023-02-03T10:48:10.078Z,55.03
2023-02-03T10:50:47.725Z,55.60
2023-02-03T10:53:25.776Z,57.10
2023-02-03T10:56:06.588Z,66.77
2023-02-03T10:58:47.862Z,71.22
2023-02-03T11:01:25.863Z,61.95
2023-02-03T11:04:03.107Z,49.17
2023-02-03T11:06:37.045Z,50.75
2023-02-03T11:09:25.235Z,59.22
2023-02-03T11:12:13.538Z,50.28
2023-02-03T11:14:49.226Z,57.95
2023-02-03T11:17:26.985Z,51.53
2023-02-03T11:20:06.488Z,53.80
2023-02-03T11:22:43.276Z,52.30
2023-02-03T11:25:21.352Z,53.47
2023-02-03T11:27:56.855Z,51.80
2023-02-03T11:30:31.100Z,53.67
2023-02-03T11:33:18.702Z,62.92
2023-02-03T11:35:58.971Z,48.35
2023-02-03T11:38:36.873Z,56.33
2023-02-03T11:41:18.907Z,46.03
2023-02-03T11:43:57.916Z,39.03
2023-02-03T11:46:31.704Z,53.15
2023-02-03T11:49:18.363Z,52.13
2023-02-03T11:51:59.637Z,57.72
2023-02-03T11:54:44.983Z,53.85
2023-02-03T11:57:31.892Z,48.10
2023-02-03T12:00:19.605Z,56.30
2023-02-03T12:03:11.926Z,54.15
2023-02-03T12:06:03.028Z,58.65
2023-02-03T12:08:52.335Z,53.05
2023-02-03T12:11:41.280Z,41.53
2023-02-03T12:14:30.756Z,45.08
2023-02-03T12:17:37.828Z,55.60
2023-02-03T12:20:29.632Z,50.58
2023-02-03T12:23:16.929Z,48.63
2023-02-03T12:26:03.731Z,48.28
2023-02-03T12:28:46.915Z,46.05
2023-02-03T12:31:29.816Z,38.42
2023-02-03T12:34:14.657Z,50.15
2023-02-03T12:36:54.422Z,46.63
2023-02-03T12:39:34.837Z,48.08
2023-02-03T12:42:16.458Z,55.80
2023-02-03T12:44:55.198Z,56.17
2023-02-03T12:47:35.925Z,50.55
2023-02-03T12:50:18.984Z,55.22
2023-02-03T12:52:56.645Z,48.25
2023-02-03T12:55:35.860Z,51.85
2023-02-03T12:58:15.969Z,53.28
2023-02-03T13:00:54.282Z,58.58
2023-02-03T13:03:36.703Z,40.15
2023-02-03T13:06:17.862Z,47.50
2023-02-03T13:08:57.339Z,49.33
2023-02-03T13:11:39.042Z,42.80
2023-02-03T13:14:19.846Z,44.60
2023-02-03T13:16:58.350Z,39.05
2023-02-03T13:19:42.180Z,50.17
2023-02-03T13:22:17.573Z,49.88
2023-02-03T13:24:56.648Z,49.63
2023-02-03T13:27:45.678Z,34.85
2023-02-03T13:33:32.158Z,41.75
2023-02-03T13:36:25.298Z,38.25
2023-02-03T13:39:16.698Z,49.33
2023-02-03T13:41:54.994Z,45.95
2023-02-03T13:44:30.767Z,38.55
2023-02-03T13:47:04.873Z,43.47
2023-02-03T13:49:38.934Z,48.53
2023-02-03T13:52:33.615Z,42.65
2023-02-03T13:55:09.444Z,50.58
2023-02-03T13:57:43.177Z,44.33
2023-02-03T14:00:50.636Z,46.97
2023-02-03T14:03:43.313Z,45.15
2023-02-03T14:06:56.972Z,64.57
2023-02-03T14:09:42.715Z,61.15
2023-02-03T14:12:56.820Z,47.13
2023-02-03T14:15:34.395Z,60.83
2023-02-03T14:18:33.616Z,50.55
2023-02-03T14:21:19.289Z,41.15
2023-02-03T14:24:07.023Z,36.65
2023-02-03T14:26:44.887Z,43.83
2023-02-03T14:29:27.448Z,39.83
2023-02-03T14:32:02.950Z,36.47
2023-02-03T14:34:42.334Z,53.88
2023-02-03T14:37:21.028Z,38.47
2023-02-03T14:40:31.508Z,42.38
2023-02-03T14:43:26.902Z,48.50
2023-02-03T14:46:41.465Z,41.58
2023-02-03T14:49:30.759Z,45.97
2023-02-03T14:52:29.553Z,45.42
2023-02-03T14:55:18.796Z,55.53
2023-02-03T14:57:56.174Z,45.67
2023-02-03T15:00:34.512Z,50.75
2023-02-03T15:03:27.644Z,40.22
2023-02-03T15:06:03.214Z,52.70
2023-02-03T15:08:45.954Z,53.88
2023-02-03T15:11:27.003Z,41.03
2023-02-03T15:14:21.561Z,42.88
2023-02-03T15:17:02.694Z,55.25
2023-02-03T15:19:41.075Z,95.80
2023-02-03T15:22:23.091Z,56.05
2023-02-03T15:25:00.767Z,49.83
2023-02-03T15:27:34.823Z,68.65
2023-02-03T15:30:20.248Z,54.85
2023-02-03T15:33:01.561Z,48.00
2023-02-03T15:35:39.141Z,52.58
2023-02-03T15:38:16.495Z,49.83
2023-02-03T15:40:54.672Z,50.33
2023-02-03T15:43:33.666Z,51.75
2023-02-03T15:46:14.962Z,43.83
2023-02-03T15:48:53.861Z,52.85
2023-02-03T15:54:10.275Z,51.70
2023-02-03T15:56:48.685Z,47.40
2023-02-03T15:59:25.136Z,49.47
2023-02-03T16:02:01.233Z,60.40
2023-02-03T16:04:36.326Z,52.70
2023-02-03T16:07:19.086Z,58.30
2023-02-03T16:09:54.196Z,49.80
2023-02-03T16:12:29.797Z,41.72
2023-02-03T16:15:03.431Z,48.70
2023-02-03T16:17:39.306Z,57.28
2023-02-03T16:20:24.815Z,45.58
2023-02-03T16:23:07.483Z,58.13
2023-02-03T16:25:41.123Z,40.63
2023-02-03T16:28:39.870Z,76.43
2023-02-03T16:31:34.555Z,45.00
2023-02-03T16:34:33.772Z,49.22
2023-02-03T16:37:41.759Z,60.78
2023-02-03T16:40:36.907Z,59.40
2023-02-03T16:43:32.432Z,57.35
2023-02-03T16:46:29.893Z,49.50
2023-02-03T16:49:20.996Z,65.22
2023-02-03T16:51:54.850Z,56.35
2023-02-03T16:54:29.912Z,42.53
2023-02-03T16:57:03.801Z,59.17
2023-02-03T16:59:37.393Z,52.92
2023-02-03T17:02:11.701Z,54.83
2023-02-03T17:04:45.270Z,58.70
2023-02-03T17:07:19.096Z,56.83
2023-02-03T17:09:54.213Z,57.10
2023-02-03T17:12:33.538Z,69.80
2023-02-03T17:15:08.447Z,40.10
2023-02-03T17:17:42.347Z,53.67
2023-02-03T17:20:15.982Z,50.88
2023-02-03T17:22:51.683Z,53.53
2023-02-03T17:25:29.213Z,63.28
2023-02-03T17:28:03.502Z,65.70
2023-02-03T17:30:41.308Z,70.30
2023-02-03T17:33:15.328Z,58.17
2023-02-03T17:35:48.883Z,60.08
2023-02-03T17:38:22.735Z,62.03
2023-02-03T17:55:17.496Z,72.57
2023-02-03T17:57:52.569Z,80.30
2023-02-03T18:00:27.041Z,49.85
2023-02-03T18:03:00.700Z,54.38
2023-02-03T18:05:36.886Z,54.72
2023-02-03T18:08:16.197Z,64.63
2023-02-03T18:10:57.792Z,55.58
2023-02-03T18:13:36.336Z,53.25
2023-02-03T18:16:15.128Z,53.65
2023-02-03T18:18:51.365Z,67.95
2023-02-03T18:21:26.301Z,46.72
2023-02-03T18:24:01.861Z,59.45
2023-02-03T18:26:37.258Z,50.35
2023-02-03T18:29:13.509Z,57.35
2023-02-03T18:31:47.869Z,50.15
2023-02-03T18:34:21.523Z,55.63
2023-02-03T18:36:55.487Z,49.58
2023-02-03T18:39:29.133Z,50.08
2023-02-03T18:42:03.987Z,57.80
2023-02-03T18:44:39.577Z,61.58
2023-02-03T18:47:17.401Z,42.75
2023-02-03T18:49:51.284Z,44.95
2023-02-03T18:52:25.046Z,43.45
2023-02-03T18:54:58.578Z,57.42
2023-02-03T18:57:32.816Z,46.17
2023-02-03T19:00:09.572Z,38.60
2023-02-03T19:02:43.553Z,44.08
2023-02-03T19:05:17.606Z,50.72
2023-02-03T19:07:51.914Z,51.15
2023-02-03T19:10:25.294Z,58.10
2023-02-03T19:12:59.144Z,49.72
2023-02-03T19:15:34.192Z,55.63
2023-02-03T19:18:08.227Z,65.43
2023-02-03T19:20:43.908Z,39.45
2023-02-03T19:23:17.955Z,41.45
2023-02-03T19:25:51.973Z,45.35
2023-02-03T19:28:31.038Z,40.63
2023-02-03T19:31:08.831Z,34.08
2023-02-03T19:33:43.441Z,30.05
2023-02-03T19:36:17.386Z,26.13
2023-02-03T19:38:51.258Z,35.47
2023-02-03T19:41:25.730Z,39.70
2023-02-03T19:43:59.559Z,31.48
2023-02-03T19:46:37.834Z,30.08
2023-02-03T19:49:13.294Z,35.70
2023-02-03T19:51:47.003Z,24.27
2023-02-03T19:54:20.776Z,32.03
2023-02-03T19:56:54.300Z,22.08
2023-02-03T19:59:28.215Z,17.45
2023-02-03T20:02:13.669Z,17.85
2023-02-03T20:04:49.982Z,24.73
2023-02-03T20:07:25.316Z,19.40
2023-02-03T20:09:59.275Z,17.00
2023-02-03T20:12:32.793Z,22.58
2023-02-03T20:15:07.600Z,10.27
2023-02-03T20:17:43.716Z,14.60
2023-02-03T20:20:20.402Z,10.30
2023-02-03T20:22:54.434Z,13.60
2023-02-03T20:25:29.176Z,9.48
2023-02-03T20:28:03.848Z,14.18
2023-02-03T20:30:38.818Z,10.52
2023-02-03T20:33:14.012Z,10.60
2023-02-03T20:35:48.006Z,14.55
2023-02-03T20:38:21.708Z,11.43
2023-02-03T20:40:55.519Z,9.80
2023-02-03T20:43:29.281Z,4.78
2023-02-03T20:46:03.438Z,6.97
2023-02-03T20:48:38.610Z,9.73
2023-02-03T20:51:12.824Z,6.78
2023-02-03T20:53:46.604Z,6.85
2023-02-03T20:56:22.618Z,9.63
2023-02-03T20:58:56.519Z,5.55
2023-02-03T21:01:30.462Z,7.30
2023-02-03T21:04:29.755Z,9.13
2023-02-03T21:07:11.806Z,8.63
2023-02-03T21:09:45.449Z,7.05
2023-02-03T21:12:19.181Z,4.75
2023-02-03T21:14:55.138Z,3.50
2023-02-03T21:17:28.869Z,6.70
2023-02-03T21:20:04.309Z,7.95
2023-02-03T21:22:38.397Z,9.75
2023-02-03T21:25:26.775Z,4.78
2023-02-03T21:28:01.642Z,4.82
2023-02-03T21:30:35.442Z,5.38
2023-02-03T21:33:30.439Z,3.92
2023-02-03T21:36:05.997Z,2.22
2023-02-03T21:38:40.445Z,5.32
2023-02-03T21:41:18.348Z,6.90
2023-02-03T21:43:54.651Z,5.00
2023-02-03T21:46:30.463Z,2.63
2023-02-03T21:49:05.516Z,6.45
2023-02-03T21:51:41.558Z,4.88
2023-02-03T21:54:26.250Z,4.20
2023-02-03T21:57:00.008Z,4.18
2023-02-03T21:59:42.230Z,8.88
2023-02-03T22:02:49.708Z,4.13
2023-02-03T22:05:23.455Z,4.63
2023-02-03T22:07:58.326Z,6.35
2023-02-03T22:10:32.226Z,3.03
2023-02-03T22:13:06.834Z,4.40
2023-02-03T22:15:40.703Z,5.35
2023-02-03T22:18:14.354Z,9.00
2023-02-03T22:20:48.238Z,4.80
2023-02-03T22:23:23.173Z,4.80
2023-02-03T22:25:56.972Z,6.38
2023-02-03T22:28:30.629Z,3.03
2023-02-03T22:31:05.595Z,6.53
2023-02-03T22:33:39.825Z,3.63
2023-02-03T22:36:14.432Z,7.93
2023-02-03T22:38:49.281Z,6.25
2023-02-03T22:41:23.110Z,5.45
2023-02-03T22:43:56.609Z,6.10
2023-02-03T22:46:30.504Z,4.13
2023-02-03T22:49:04.079Z,2.17
2023-02-03T22:51:37.799Z,3.13
2023-02-03T22:54:12.699Z,4.85
2023-02-03T22:56:46.395Z,4.10
2023-02-03T22:59:19.844Z,5.28
2023-02-03T23:01:53.763Z,3.28
2023-02-03T23:04:27.402Z,2.75
2023-02-03T23:07:01.461Z,2.10
2023-02-03T23:09:36.530Z,3.03
2023-02-03T23:12:10.332Z,3.00
2023-02-03T23:14:43.880Z,1.85
2023-02-03T23:17:17.716Z,2.25
2023-02-03T23:19:51.225Z,2.40
2023-02-03T23:22:25.015Z,3.05
2023-02-03T23:25:00.413Z,2.85
2023-02-03T23:27:34.281Z,8.30
2023-02-03T23:30:08.970Z,2.72
2023-02-03T23:32:42.942Z,1.65
2023-02-03T23:35:34.560Z,3.17
2023-02-03T23:38:08.270Z,4.05
2023-02-03T23:40:43.450Z,2.38
2023-02-03T23:43:17.283Z,6.90
2023-02-03T23:45:50.873Z,4.07
2023-02-03T23:48:24.630Z,4.90
2023-02-03T23:50:58.196Z,6.13
2023-02-03T23:53:32.016Z,4.53
2023-02-03T23:56:07.327Z,8.07
2023-02-03T23:58:41.133Z,3.00
